createdAt,value
2022-09-06T00:00:16.952Z,85.93
2022-09-06T00:02:44.924Z,74.72
2022-09-06T00:05:13.268Z,79.88
2022-09-06T00:07:40.361Z,83.47
2022-09-06T00:10:07.753Z,63.35
2022-09-06T00:12:34.519Z,82.15
2022-09-06T00:15:01.152Z,75.70
2022-09-06T00:17:27.844Z,83.72
2022-09-06T00:19:54.766Z,79.63
2022-09-06T00:22:21.451Z,74.32
2022-09-06T00:24:48.019Z,84.53
2022-09-06T00:27:14.616Z,91.30
2022-09-06T00:29:41.869Z,78.93
2022-09-06T00:32:09.096Z,83.10
2022-09-06T00:34:35.782Z,76.65
2022-09-06T00:37:02.480Z,84.70
2022-09-06T00:39:29.246Z,104.53
2022-09-06T00:41:56.010Z,73.85
2022-09-06T00:44:22.721Z,97.88
2022-09-06T00:46:52.203Z,79.57
2022-09-06T00:49:24.379Z,102.80
2022-09-06T00:51:55.645Z,90.38
2022-09-06T00:54:22.456Z,92.15
2022-09-06T00:56:49.734Z,86.45
2022-09-06T00:59:17.255Z,91.47
2022-09-06T01:01:44.069Z,82.18
2022-09-06T01:04:11.025Z,56.72
2022-09-06T01:07:05.966Z,70.68
2022-09-06T01:10:02.868Z,72.65
2022-09-06T01:12:32.245Z,69.53
2022-09-06T01:15:13.707Z,63.97
2022-09-06T01:17:40.269Z,67.30
2022-09-06T01:20:21.968Z,80.80
2022-09-06T01:23:10.580Z,63.55
2022-09-06T01:25:47.033Z,84.97
2022-09-06T01:28:28.936Z,83.18
2022-09-06T01:31:30.408Z,81.53
2022-09-06T01:34:05.937Z,89.88
2022-09-06T01:37:08.457Z,93.88
2022-09-06T01:39:36.434Z,79.93
2022-09-06T01:42:25.805Z,83.60
2022-09-06T01:44:59.709Z,70.85
2022-09-06T01:47:29.313Z,111.45
2022-09-06T01:50:14.290Z,102.10
2022-09-06T01:53:25.245Z,105.40
2022-09-06T01:55:58.322Z,99.57
2022-09-06T01:58:51.481Z,94.13
2022-09-06T02:01:19.236Z,89.47
2022-09-06T02:04:00.598Z,96.05
2022-09-06T02:06:36.274Z,99.83
2022-09-06T02:09:10.381Z,94.75
2022-09-06T02:11:49.785Z,89.20
2022-09-06T02:14:49.785Z,82.25
2022-09-06T02:17:21.951Z,102.82
2022-09-06T02:19:54.838Z,82.27
2022-09-06T02:22:26.106Z,88.67
2022-09-06T02:24:55.183Z,75.97
2022-09-06T02:27:21.845Z,81.55
2022-09-06T02:29:48.697Z,85.03
2022-09-06T02:32:21.892Z,66.32
2022-09-06T02:34:54.574Z,85.78
2022-09-06T02:37:23.883Z,87.05
2022-09-06T02:39:50.530Z,88.90
2022-09-06T02:42:17.576Z,79.10
2022-09-06T02:44:44.275Z,75.60
2022-09-06T02:47:10.938Z,71.53
2022-09-06T02:49:37.620Z,71.72
2022-09-06T02:52:04.390Z,82.82
2022-09-06T02:54:31.220Z,81.75
2022-09-06T02:56:57.949Z,69.90
2022-09-06T02:59:24.549Z,62.17
2022-09-06T03:01:51.207Z,77.85
2022-09-06T03:04:17.894Z,72.30
2022-09-06T03:06:44.557Z,70.05
2022-09-06T03:09:11.229Z,73.43
2022-09-06T03:11:38.057Z,73.53
2022-09-06T03:14:04.872Z,76.07
2022-09-06T03:16:31.517Z,61.40
2022-09-06T03:18:58.264Z,65.10
2022-09-06T03:21:24.946Z,67.13
2022-09-06T03:23:51.537Z,58.47
2022-09-06T03:26:18.349Z,76.50
2022-09-06T03:28:45.243Z,81.93
2022-09-06T03:31:12.074Z,96.35
2022-09-06T03:33:38.808Z,79.40
2022-09-06T03:36:05.559Z,74.53
2022-09-06T03:38:32.548Z,73.28
2022-09-06T03:40:59.239Z,84.70
2022-09-06T03:43:28.107Z,89.80
2022-09-06T03:45:57.835Z,79.80
2022-09-06T03:48:26.787Z,84.97
2022-09-06T03:50:55.765Z,90.82
2022-09-06T03:53:24.157Z,76.72
2022-09-06T03:55:53.021Z,84.13
2022-09-06T03:58:21.531Z,69.30
2022-09-06T04:00:48.924Z,86.93
2022-09-06T04:03:15.842Z,66.60
2022-09-06T04:05:46.522Z,108.73
2022-09-06T04:08:13.550Z,113.95
2022-09-06T04:10:40.554Z,102.10
2022-09-06T04:13:07.158Z,110.63
2022-09-06T04:15:33.756Z,105.80
2022-09-06T04:18:00.436Z,72.55
2022-09-06T04:20:27.113Z,98.22
2022-09-06T04:22:53.759Z,102.50
2022-09-06T04:25:20.383Z,103.43
2022-09-06T04:27:47.041Z,98.97
2022-09-06T04:30:13.654Z,95.32
2022-09-06T04:32:40.501Z,101.30
2022-09-06T04:35:07.698Z,121.30
2022-09-06T04:37:34.464Z,90.55
2022-09-06T04:40:01.290Z,109.72
2022-09-06T04:42:28.063Z,95.60
2022-09-06T04:44:54.782Z,108.80
2022-09-06T04:47:21.414Z,102.80
2022-09-06T04:49:51.162Z,100.65
2022-09-06T04:52:18.101Z,100.40
2022-09-06T04:54:44.894Z,115.82
2022-09-06T04:57:11.512Z,103.63
2022-09-06T04:59:38.375Z,108.30
2022-09-06T05:02:05.084Z,118.53
2022-09-06T05:04:31.762Z,110.47
2022-09-06T05:07:07.122Z,99.97
2022-09-06T05:09:34.186Z,84.95
2022-09-06T05:12:01.662Z,80.32
2022-09-06T05:14:28.954Z,82.93
2022-09-06T05:16:55.973Z,91.75
2022-09-06T05:19:23.126Z,82.35
2022-09-06T05:21:51.435Z,85.85
2022-09-06T05:24:18.306Z,84.63
2022-09-06T05:26:44.972Z,103.53
2022-09-06T05:29:11.661Z,99.68
2022-09-06T05:31:38.434Z,89.65
2022-09-06T05:34:05.351Z,76.35
2022-09-06T05:36:32.077Z,81.40
2022-09-06T05:38:59.423Z,85.03
2022-09-06T05:41:26.456Z,66.43
2022-09-06T05:43:53.148Z,75.20
2022-09-06T05:46:20.191Z,68.50
2022-09-06T05:49:01.238Z,65.82
2022-09-06T05:51:32.857Z,79.60
2022-09-06T05:53:59.944Z,60.85
2022-09-06T05:56:26.479Z,67.50
2022-09-06T05:58:53.048Z,59.90
2022-09-06T06:01:26.731Z,64.72
2022-09-06T06:03:58.989Z,65.70
2022-09-06T06:06:27.906Z,63.47
2022-09-06T06:08:54.892Z,87.93
2022-09-06T06:11:22.027Z,73.60
2022-09-06T06:13:48.906Z,74.90
2022-09-06T06:16:17.758Z,52.63
2022-09-06T06:18:47.656Z,63.47
2022-09-06T06:21:22.561Z,55.37
2022-09-06T06:24:01.201Z,65.80
2022-09-06T06:26:31.658Z,60.88
2022-09-06T06:29:01.796Z,69.00
2022-09-06T06:31:33.351Z,76.18
2022-09-06T06:34:03.208Z,66.93
2022-09-06T06:36:31.761Z,58.22
2022-09-06T06:38:58.625Z,49.80
2022-09-06T06:41:27.580Z,61.28
2022-09-06T06:43:56.364Z,54.72
2022-09-06T06:46:25.281Z,56.53
2022-09-06T06:48:55.184Z,60.97
2022-09-06T06:51:24.132Z,53.88
2022-09-06T06:53:51.548Z,54.20
2022-09-06T06:56:22.359Z,53.72
2022-09-06T06:58:51.240Z,62.47
2022-09-06T07:01:20.575Z,48.03
2022-09-06T07:03:48.087Z,48.30
2022-09-06T07:06:15.426Z,44.28
2022-09-06T07:08:42.604Z,45.95
2022-09-06T07:11:11.721Z,48.45
2022-09-06T07:13:38.682Z,48.90
2022-09-06T07:16:20.018Z,39.38
2022-09-06T07:18:47.756Z,38.75
2022-09-06T07:26:38.919Z,32.13
2022-09-06T07:29:07.256Z,29.67
2022-09-06T07:34:22.124Z,20.27
2022-09-06T07:36:51.611Z,20.20
2022-09-06T07:39:18.268Z,18.23
2022-09-06T07:41:44.995Z,6.82
2022-09-06T07:44:11.649Z,5.30
2022-09-06T07:46:38.514Z,4.43
2022-09-06T07:49:06.162Z,4.32
2022-09-06T07:51:33.014Z,3.38
2022-09-06T07:54:34.643Z,3.33
2022-09-06T07:56:47.542Z,2.92
2022-09-06T07:59:14.312Z,3.10
2022-09-06T08:01:41.621Z,2.75
2022-09-06T08:04:10.785Z,2.53
2022-09-06T08:09:27.329Z,2.47
2022-09-06T08:11:53.963Z,2.90
2022-09-06T08:14:20.632Z,2.80
2022-09-06T08:16:47.344Z,2.85
2022-09-06T08:19:14.360Z,2.58
2022-09-06T08:21:41.219Z,1.80
2022-09-06T08:24:12.466Z,2.30
2022-09-06T08:26:40.594Z,2.00
2022-09-06T08:29:09.010Z,2.22
2022-09-06T08:31:41.218Z,1.90
2022-09-06T08:34:08.275Z,2.43
2022-09-06T08:36:35.304Z,1.95
2022-09-06T08:39:05.454Z,2.25
2022-09-06T08:41:49.008Z,2.33
2022-09-06T08:47:16.960Z,1.50
2022-09-06T08:49:49.273Z,1.50
2022-09-06T08:52:49.570Z,1.70
2022-09-06T08:55:44.514Z,1.63
2022-09-06T08:58:33.962Z,2.00
2022-09-06T09:01:08.738Z,1.70
2022-09-06T09:03:37.722Z,2.30
2022-09-06T09:06:07.716Z,1.50
2022-09-06T09:08:37.223Z,1.50
2022-09-06T09:11:09.036Z,1.40
2022-09-06T09:13:40.591Z,1.40
2022-09-06T09:16:07.606Z,2.22
2022-09-06T09:18:38.840Z,2.50
2022-09-06T09:21:05.930Z,2.10
2022-09-06T09:23:32.573Z,1.77
2022-09-06T09:26:04.668Z,1.80
2022-09-06T09:28:31.684Z,1.45
2022-09-06T09:30:58.876Z,1.73
2022-09-06T09:33:35.869Z,2.28
2022-09-06T09:36:07.927Z,2.10
2022-09-06T09:38:52.968Z,1.70
2022-09-06T09:41:38.336Z,1.60
2022-09-06T09:44:09.193Z,1.33
2022-09-06T09:46:37.576Z,2.53
2022-09-06T09:49:04.203Z,3.40
2022-09-06T09:51:36.255Z,2.10
2022-09-06T09:54:05.708Z,1.50
2022-09-06T09:56:53.852Z,1.75
2022-09-06T09:59:44.172Z,1.63
2022-09-06T10:02:35.747Z,2.05
2022-09-06T10:05:04.325Z,1.70
2022-09-06T10:07:33.903Z,2.90
2022-09-06T10:10:07.308Z,3.03
2022-09-06T10:12:38.756Z,2.30
2022-09-06T10:15:08.403Z,1.58
2022-09-06T10:17:38.020Z,1.20
2022-09-06T10:20:11.566Z,1.40
2022-09-06T10:23:03.144Z,1.42
2022-09-06T10:25:54.674Z,1.13
2022-09-06T10:28:33.605Z,1.45
2022-09-06T10:31:11.050Z,1.40
2022-09-06T10:33:49.665Z,1.60
2022-09-06T10:36:22.770Z,1.38
2022-09-06T10:39:04.208Z,1.13
2022-09-06T10:41:48.584Z,1.60
2022-09-06T10:45:02.936Z,1.60
2022-09-06T10:47:50.430Z,1.20
2022-09-06T10:50:17.405Z,1.77
2022-09-06T10:52:47.089Z,1.93
2022-09-06T10:55:18.237Z,1.58
2022-09-06T11:00:47.309Z,1.10
2022-09-06T11:06:22.514Z,1.40
2022-09-06T11:08:59.578Z,1.27
2022-09-06T11:11:58.484Z,1.23
2022-09-06T11:14:27.292Z,1.65
2022-09-06T11:17:00.714Z,1.20
2022-09-06T11:19:45.242Z,1.50
2022-09-06T11:22:50.858Z,1.27
2022-09-06T11:25:39.733Z,1.40
2022-09-06T11:28:13.153Z,1.40
2022-09-06T11:30:47.131Z,1.50
2022-09-06T11:33:26.141Z,1.23
2022-09-06T11:35:54.308Z,1.40
2022-09-06T11:38:25.558Z,1.47
2022-09-06T11:41:02.734Z,1.15
2022-09-06T11:43:52.578Z,1.50
2022-09-06T11:46:34.390Z,1.25
2022-09-06T11:49:04.872Z,1.38
2022-09-06T11:51:38.759Z,1.50
2022-09-06T11:54:14.821Z,1.27
2022-09-06T11:56:47.284Z,2.00
2022-09-06T11:59:16.459Z,1.90
2022-09-06T12:02:00.991Z,1.70
2022-09-06T12:05:01.646Z,1.40
2022-09-06T12:07:30.444Z,1.30
2022-09-06T12:09:57.437Z,1.50
2022-09-06T12:12:45.963Z,1.60
2022-09-06T12:15:24.682Z,1.45
2022-09-06T12:17:51.378Z,1.33
2022-09-06T12:20:49.050Z,1.30
2022-09-06T12:23:34.218Z,1.58
2022-09-06T12:26:05.840Z,1.67
2022-09-06T12:28:51.373Z,1.88
2022-09-06T12:31:38.239Z,1.60
2022-09-06T12:34:21.070Z,1.60
2022-09-06T12:36:51.576Z,1.40
2022-09-06T12:39:18.182Z,1.40
2022-09-06T12:41:49.295Z,1.52
2022-09-06T12:44:17.966Z,1.35
2022-09-06T12:46:49.844Z,1.60
2022-09-06T12:49:21.247Z,1.90
2022-09-06T12:51:48.129Z,2.20
2022-09-06T12:54:26.518Z,1.90
2022-09-06T12:57:04.536Z,1.55
2022-09-06T12:59:32.348Z,1.70
2022-09-06T13:02:10.824Z,1.48
2022-09-06T13:04:49.504Z,1.40
2022-09-06T13:07:19.072Z,1.70
2022-09-06T13:09:51.965Z,1.20
2022-09-06T13:12:29.576Z,1.85
2022-09-06T13:14:58.196Z,1.90
2022-09-06T13:17:29.858Z,1.57
2022-09-06T13:19:58.133Z,1.40
2022-09-06T13:22:47.422Z,2.00
2022-09-06T13:25:33.455Z,1.65
2022-09-06T13:28:01.562Z,1.45
2022-09-06T13:30:38.698Z,1.50
2022-09-06T13:33:07.527Z,1.20
2022-09-06T13:35:37.413Z,1.20
2022-09-06T13:38:31.129Z,1.80
2022-09-06T13:41:16.560Z,1.70
2022-09-06T13:43:45.633Z,1.92
2022-09-06T13:46:12.427Z,1.23
2022-09-06T13:48:44.694Z,2.05
2022-09-06T13:51:11.453Z,1.70
2022-09-06T13:53:38.075Z,1.73
2022-09-06T13:56:08.622Z,1.35
2022-09-06T13:58:36.633Z,1.40
2022-09-06T14:01:04.266Z,1.77
2022-09-06T14:03:32.434Z,1.58
2022-09-06T14:06:02.444Z,1.70
2022-09-06T14:08:49.228Z,1.30
2022-09-06T14:11:16.275Z,1.55
2022-09-06T14:13:42.950Z,1.73
2022-09-06T14:16:10.189Z,1.60
2022-09-06T14:18:36.946Z,1.60
2022-09-06T14:21:05.435Z,1.70
2022-09-06T14:23:32.161Z,3.40
2022-09-06T14:26:00.428Z,1.85
2022-09-06T14:28:27.777Z,1.77
2022-09-06T14:30:57.805Z,1.52
2022-09-06T14:33:24.540Z,1.90
2022-09-06T14:35:51.199Z,1.58
2022-09-06T14:38:17.837Z,1.38
2022-09-06T14:40:44.465Z,1.38
2022-09-06T14:43:11.261Z,1.30
2022-09-06T14:45:38.062Z,1.67
2022-09-06T14:48:05.607Z,1.60
2022-09-06T14:50:32.300Z,1.40
2022-09-06T14:52:59.110Z,1.20
2022-09-06T14:55:25.746Z,1.27
2022-09-06T14:57:52.458Z,1.83
2022-09-06T15:00:19.314Z,2.10
2022-09-06T15:02:46.088Z,1.85
2022-09-06T15:05:12.766Z,1.60
2022-09-06T15:07:39.386Z,1.30
2022-09-06T15:10:06.343Z,1.63
2022-09-06T15:12:33.213Z,2.93
2022-09-06T15:14:59.963Z,1.70
2022-09-06T15:17:26.680Z,1.85
2022-09-06T15:19:54.297Z,1.23
2022-09-06T15:22:20.973Z,1.30
2022-09-06T15:24:50.281Z,1.47
2022-09-06T15:27:18.299Z,1.55
2022-09-06T15:29:45.056Z,1.48
2022-09-06T15:32:11.734Z,1.60
2022-09-06T15:34:38.756Z,1.80
2022-09-06T15:37:05.418Z,2.20
2022-09-06T15:39:34.914Z,1.40
2022-09-06T15:42:01.785Z,1.40
2022-09-06T15:44:28.553Z,1.50
2022-09-06T15:46:58.077Z,1.50
2022-09-06T15:49:28.567Z,2.05
2022-09-06T15:51:58.197Z,1.60
2022-09-06T15:54:43.764Z,1.80
2022-09-06T15:57:10.651Z,1.13
2022-09-06T15:59:38.801Z,1.40
2022-09-06T16:02:05.656Z,1.50
2022-09-06T16:04:32.322Z,1.40
2022-09-06T16:06:58.952Z,1.30
2022-09-06T16:09:25.769Z,1.30
2022-09-06T16:11:52.583Z,1.52
2022-09-06T16:14:19.426Z,1.70
2022-09-06T16:16:46.183Z,1.80
2022-09-06T16:19:13.516Z,2.10
2022-09-06T16:21:42.683Z,2.08
2022-09-06T16:24:12.560Z,2.17
2022-09-06T16:26:42.344Z,2.47
2022-09-06T16:29:11.036Z,2.75
2022-09-06T16:31:40.633Z,2.67
2022-09-06T16:34:09.567Z,2.30
2022-09-06T16:36:36.323Z,2.40
2022-09-06T16:39:03.965Z,4.35
2022-09-06T16:41:42.764Z,2.50
2022-09-06T16:44:16.297Z,2.00
2022-09-06T16:46:45.629Z,1.90
2022-09-06T16:49:12.690Z,2.70
2022-09-06T16:51:42.824Z,2.70
2022-09-06T16:54:12.331Z,2.40
2022-09-06T16:56:42.691Z,2.33
2022-09-06T16:59:15.174Z,2.60
2022-09-06T17:01:45.608Z,2.97
2022-09-06T17:04:13.184Z,3.40
2022-09-06T17:06:44.569Z,3.90
2022-09-06T17:09:16.583Z,3.03
2022-09-06T17:11:43.421Z,3.00
2022-09-06T17:14:10.191Z,5.32
2022-09-06T17:16:55.408Z,5.82
2022-09-06T17:19:22.390Z,3.50
2022-09-06T17:21:56.675Z,3.65
2022-09-06T17:24:23.514Z,5.45
2022-09-06T17:26:53.217Z,5.43
2022-09-06T17:29:20.032Z,4.40
2022-09-06T17:31:47.826Z,5.20
2022-09-06T17:34:14.505Z,6.53
2022-09-06T17:36:44.143Z,6.80
2022-09-06T17:39:15.456Z,4.20
2022-09-06T17:41:55.345Z,4.70
2022-09-06T17:44:25.318Z,6.00
2022-09-06T17:47:11.390Z,6.53
2022-09-06T17:49:39.361Z,5.00
2022-09-06T17:52:05.986Z,4.82
2022-09-06T17:54:32.772Z,6.82
2022-09-06T17:56:59.493Z,6.07
2022-09-06T17:59:26.182Z,8.70
2022-09-06T18:01:55.426Z,8.10
2022-09-06T18:04:22.110Z,12.20
2022-09-06T18:06:48.789Z,14.20
2022-09-06T18:09:17.787Z,17.05
2022-09-06T18:11:48.325Z,17.08
2022-09-06T18:14:17.402Z,12.75
2022-09-06T18:16:56.553Z,6.18
2022-09-06T18:19:23.580Z,4.30
2022-09-06T18:21:50.831Z,4.50
2022-09-06T18:24:17.728Z,4.30
2022-09-06T18:26:47.317Z,5.45
2022-09-06T18:29:18.561Z,5.03
2022-09-06T18:31:45.831Z,5.30
2022-09-06T18:34:13.109Z,3.83
2022-09-06T18:36:40.462Z,4.90
2022-09-06T18:39:07.163Z,4.00
2022-09-06T18:41:53.403Z,4.10
2022-09-06T18:44:20.358Z,4.28
2022-09-06T18:46:47.943Z,3.38
2022-09-06T18:49:18.539Z,3.83
2022-09-06T18:51:45.585Z,3.63
2022-09-06T18:54:13.162Z,3.45
2022-09-06T18:56:40.323Z,6.30
2022-09-06T18:59:09.861Z,7.85
2022-09-06T19:01:36.806Z,8.70
2022-09-06T19:04:05.313Z,10.82
2022-09-06T19:06:35.204Z,12.75
2022-09-06T19:09:08.806Z,19.50
2022-09-06T19:11:35.848Z,14.02
2022-09-06T19:14:03.636Z,11.63
2022-09-06T19:16:31.360Z,12.75
2022-09-06T19:19:04.849Z,10.85
2022-09-06T19:21:32.610Z,8.73
2022-09-06T19:24:08.307Z,6.72
2022-09-06T19:26:37.843Z,9.85
2022-09-06T19:29:08.800Z,9.47
2022-09-06T19:31:38.772Z,8.98
2022-09-06T19:34:05.920Z,10.35
2022-09-06T19:36:32.964Z,14.82
2022-09-06T19:39:04.376Z,11.77
2022-09-06T19:41:33.788Z,11.75
2022-09-06T19:44:01.561Z,15.43
2022-09-06T19:46:28.465Z,25.98
2022-09-06T19:48:58.849Z,27.55
2022-09-06T19:51:25.765Z,23.33
2022-09-06T19:53:54.682Z,33.20
2022-09-06T19:56:33.792Z,37.03
2022-09-06T19:59:03.322Z,40.53
2022-09-06T20:01:32.538Z,39.15
2022-09-06T20:04:00.639Z,33.30
2022-09-06T20:06:27.462Z,48.17
2022-09-06T20:08:56.060Z,52.33
2022-09-06T20:11:25.914Z,53.30
2022-09-06T20:13:52.888Z,60.88
2022-09-06T20:16:20.983Z,58.83
2022-09-06T20:18:48.528Z,86.22
2022-09-06T20:21:15.449Z,65.57
2022-09-06T20:23:42.139Z,71.97
2022-09-06T20:26:11.299Z,68.13
2022-09-06T20:28:38.180Z,73.40
2022-09-06T20:31:11.325Z,76.50
2022-09-06T20:33:38.150Z,74.68
2022-09-06T20:36:07.230Z,85.95
2022-09-06T20:38:36.456Z,84.43
2022-09-06T20:41:08.705Z,91.53
2022-09-06T20:43:37.102Z,72.85
2022-09-06T20:46:16.442Z,71.85
2022-09-06T20:48:45.320Z,76.40
2022-09-06T20:51:18.968Z,73.13
2022-09-06T20:53:55.172Z,93.30
2022-09-06T20:56:24.312Z,58.58
2022-09-06T20:58:55.491Z,81.32
2022-09-06T21:01:25.226Z,59.95
2022-09-06T21:03:57.399Z,77.40
2022-09-06T21:06:26.084Z,88.85
2022-09-06T21:08:52.816Z,91.85
2022-09-06T21:11:20.152Z,91.03
2022-09-06T21:13:51.232Z,86.83
2022-09-06T21:16:24.388Z,83.45
2022-09-06T21:18:53.133Z,88.10
2022-09-06T21:21:21.454Z,92.97
2022-09-06T21:23:48.891Z,105.15
2022-09-06T21:26:16.006Z,98.65
2022-09-06T21:28:43.492Z,102.88
2022-09-06T21:31:24.904Z,79.68
2022-09-06T21:33:56.795Z,73.93
2022-09-06T21:36:27.509Z,88.72
2022-09-06T21:38:55.668Z,104.00
2022-09-06T21:41:23.370Z,79.63
2022-09-06T21:43:54.203Z,114.15
2022-09-06T21:46:22.618Z,103.78
2022-09-06T21:48:51.605Z,115.88
2022-09-06T21:51:20.688Z,94.70
2022-09-06T21:53:49.525Z,89.05
2022-09-06T21:56:19.617Z,76.15
2022-09-06T21:58:50.347Z,90.82
2022-09-06T22:01:17.277Z,84.35
2022-09-06T22:03:44.584Z,83.85
2022-09-06T22:06:16.923Z,97.77
2022-09-06T22:08:44.538Z,104.72
2022-09-06T22:11:20.136Z,102.38
2022-09-06T22:13:47.715Z,104.50
2022-09-06T22:16:17.224Z,98.03
2022-09-06T22:18:44.964Z,98.28
2022-09-06T22:21:18.443Z,105.67
2022-09-06T22:23:50.816Z,89.07
2022-09-06T22:26:18.124Z,111.82
2022-09-06T22:28:45.222Z,104.50
2022-09-06T22:31:12.221Z,97.20
2022-09-06T22:33:42.114Z,76.05
2022-09-06T22:36:10.696Z,65.88
2022-09-06T22:38:37.547Z,103.07
2022-09-06T22:41:05.836Z,84.80
2022-09-06T22:43:32.569Z,108.10
2022-09-06T22:46:05.751Z,77.50
2022-09-06T22:48:33.920Z,91.57
2022-09-06T22:51:01.766Z,84.95
2022-09-06T22:53:29.284Z,101.10
2022-09-06T22:55:56.145Z,106.63
2022-09-06T22:58:27.629Z,88.43
2022-09-06T23:00:55.142Z,107.63
2022-09-06T23:03:22.403Z,87.80
2022-09-06T23:05:49.416Z,87.13
2022-09-06T23:08:17.813Z,76.93
2022-09-06T23:10:44.856Z,85.70
2022-09-06T23:13:11.810Z,99.85
2022-09-06T23:15:46.077Z,104.32
2022-09-06T23:18:14.081Z,76.93
2022-09-06T23:20:41.093Z,80.97
2022-09-06T23:23:08.262Z,119.90
2022-09-06T23:25:38.998Z,112.03
2022-09-06T23:28:06.171Z,114.15
2022-09-06T23:30:35.956Z,95.47
2022-09-06T23:33:03.820Z,112.40
2022-09-06T23:35:30.756Z,116.88
2022-09-06T23:37:57.663Z,100.07
2022-09-06T23:40:24.347Z,108.70
2022-09-06T23:42:51.007Z,126.95
2022-09-06T23:45:18.151Z,119.28
2022-09-06T23:47:44.790Z,117.47
2022-09-06T23:50:11.525Z,112.82
2022-09-06T23:52:38.179Z,131.27
2022-09-06T23:55:05.488Z,85.90
2022-09-06T23:57:32.230Z,115.53
2022-09-06T23:59:58.923Z,111.38
